Página principal
METAR-TAF:

METAR-TAF

Aeroportos :

Mfuwe, Zâmbia

latitude: 13-15-32S, longitude: 031-56-12E, altura: 573 m

METAR: em falta

Hora: 18:58 (16:58 UTC)

Previsão

O boletim foi feito há 36 horas e 58 minutos, às 04:00 UTC
Previsão válida de 22 às 06 UTC a 23 às 12 UTC
Vento 10 kt de es-sudeste
Visibilidade 10 km ou mais
Nuvens fragmentadasa uma altura de 1000 ft
Tornando-se
de 22 às 12 UTC a 22 às 14 UTC
Vento 10 kt de este
Visibilidade 10 km ou mais
Nuvens dispersasa uma altura de 2000 ft
Tornando-se
de 23 às 08 UTC a 23 às 10 UTC
Vento 10 kt de este
Visibilidade 10 km ou mais
Nuvens dispersasa uma altura de 2500 ft

TAF: FLMF 220400Z 2206/2312 12010KT 9999 BKN010 BECMG 2212/2214 09010KT 9999 SCT020 BECMG 2308/2310 10010KT 9999 SCT025

Observações e previsões do tempo de mais de 4000 aeroportos (mensagens METAR e TAF).

As estações disponíveis são os pontos amarelos e vermelhos sobre o mapa.

Mova o rato sobre o mapa para ver o nome da estação.

Depois clique no ponto para visualizar as observações e previsões meteorológicas.

Para alterar o mapa : clique nos botões verdes com uma cruz preta para aumentar o zoom; no botão verde com uma pitada de zoom; ou nas setas verdes para mapas adjacentes.


METAR-TAF: